Time;durP1;ratioP1;P1;durP2;ratioP2;P2;SDS_P1;SDS_P2;PMS_P1;PMS_P2;Temp;Humidity;BMP_temperature;BMP_pressure;BME280_temperature;BME280_humidity;BME280_pressure;Samples;Min_cycle;Max_cycle;Signal;HPM_P1;HPM_P2
2021/07/10 00:01:50;;;;;;;16.07;14.47;;;15.80;99.90;;;;;;5001199;28;20454;-67
2021/07/10 00:04:16;;;;;;;19.10;15.30;;;15.70;99.90;;;;;;5001396;28;20806;-67
2021/07/10 00:06:43;;;;;;;16.67;14.80;;;15.70;99.90;;;;;;5000273;28;21022;-67
2021/07/10 00:09:10;;;;;;;16.17;14.83;;;15.70;99.90;;;;;;4987427;28;21058;-67
2021/07/10 00:11:38;;;;;;;15.20;13.90;;;15.70;99.90;;;;;;4981531;28;20897;-67
2021/07/10 00:14:05;;;;;;;16.40;14.90;;;15.60;99.90;;;;;;4981512;28;20557;-67
2021/07/10 00:16:31;;;;;;;15.87;14.47;;;15.60;99.90;;;;;;4981413;28;20466;-67
2021/07/10 00:18:58;;;;;;;14.60;13.40;;;15.60;99.90;;;;;;4993341;28;20497;-67
2021/07/10 00:21:25;;;;;;;17.90;16.20;;;15.50;99.90;;;;;;5000628;28;20796;-66
2021/07/10 00:23:51;;;;;;;19.57;16.23;;;15.50;99.90;;;;;;5000822;28;20458;-67
2021/07/10 00:26:18;;;;;;;16.90;15.37;;;15.50;99.90;;;;;;5001218;28;20496;-67
2021/07/10 00:28:46;;;;;;;18.40;16.50;;;15.40;99.90;;;;;;4990874;28;20451;-66
2021/07/10 00:31:13;;;;;;;17.30;15.60;;;15.40;99.90;;;;;;4980945;28;20447;-67
2021/07/10 00:33:40;;;;;;;17.67;15.93;;;15.30;99.90;;;;;;4981079;28;20451;-66
2021/07/10 00:36:07;;;;;;;17.47;15.80;;;15.30;99.90;;;;;;4980980;28;20856;-67
2021/07/10 00:38:33;;;;;;;19.03;16.63;;;15.20;99.90;;;;;;4989140;28;20450;-67
2021/07/10 00:41:00;;;;;;;18.53;15.67;;;15.20;99.90;;;;;;5000513;28;20450;-67
2021/07/10 00:43:27;;;;;;;16.03;14.50;;;15.20;99.90;;;;;;5000471;28;20816;-67
2021/07/10 00:45:55;;;;;;;20.07;16.40;;;15.20;99.90;;;;;;5000300;28;20489;-67
2021/07/10 00:48:22;;;;;;;17.47;15.97;;;15.10;99.90;;;;;;4994885;28;20454;-67
2021/07/10 00:50:49;;;;;;;17.40;15.73;;;15.10;99.90;;;;;;4982283;28;20949;-67
2021/07/10 00:53:15;;;;;;;18.20;16.33;;;15.10;99.90;;;;;;4980760;28;20462;-67
2021/07/10 00:55:43;;;;;;;15.70;14.20;;;15.10;99.90;;;;;;4980533;28;21047;-67
2021/07/10 00:58:11;;;;;;;16.63;14.93;;;15.10;99.90;;;;;;4984983;28;20457;-67
2021/07/10 01:00:39;;;;;;;17.20;15.50;;;15.00;99.90;;;;;;5000130;28;20967;-66
2021/07/10 01:03:09;;;;;;;16.50;14.90;;;15.00;99.90;;;;;;5000066;28;20759;-67
2021/07/10 01:05:37;;;;;;;16.23;14.73;;;15.00;99.90;;;;;;5000157;28;20494;-67
2021/07/10 01:08:05;;;;;;;16.80;14.97;;;15.00;99.90;;;;;;4982926;28;20462;-67
2021/07/10 01:10:32;;;;;;;20.70;18.50;;;14.90;99.90;;;;;;4980798;28;20461;-66
2021/07/10 01:12:59;;;;;;;18.57;16.20;;;14.90;99.90;;;;;;4980273;28;20454;-67
2021/07/10 01:15:27;;;;;;;17.40;15.60;;;14.90;99.90;;;;;;4980461;28;20802;-66
2021/07/10 01:17:57;;;;;;;19.47;17.00;;;14.80;99.90;;;;;;4981736;28;20455;-67
2021/07/10 01:20:26;;;;;;;19.17;17.07;;;14.80;99.90;;;;;;4980519;28;20554;-66
2021/07/10 01:22:56;;;;;;;22.50;19.10;;;14.80;99.90;;;;;;4980133;28;20446;-66
2021/07/10 01:25:24;;;;;;;21.00;18.80;;;14.80;99.90;;;;;;4980083;28;20641;-67
2021/07/10 01:27:52;;;;;;;28.50;21.00;;;14.80;99.90;;;;;;4996416;28;20454;-66
2021/07/10 01:30:20;;;;;;;24.10;21.00;;;14.80;99.90;;;;;;5000122;28;20918;-67
2021/07/10 01:32:49;;;;;;;20.40;18.40;;;14.80;99.90;;;;;;4999943;28;20481;-67
2021/07/10 01:35:17;;;;;;;25.33;17.93;;;14.80;99.90;;;;;;4999607;28;20465;-66
2021/07/10 01:37:44;;;;;;;25.43;21.70;;;14.70;99.90;;;;;;4985087;28;20470;-66
2021/07/10 01:40:14;;;;;;;25.73;21.50;;;14.70;99.90;;;;;;4980343;28;20857;-66
2021/07/10 01:42:41;;;;;;;22.00;19.93;;;14.70;99.90;;;;;;4980040;28;20446;-67
2021/07/10 01:45:09;;;;;;;25.50;21.67;;;14.70;99.90;;;;;;4979996;28;20489;-67
2021/07/10 01:47:36;;;;;;;27.40;23.43;;;14.60;99.90;;;;;;4993837;28;20473;-67
2021/07/10 01:50:04;;;;;;;27.70;20.83;;;14.70;99.90;;;;;;4999581;28;20907;-66
2021/07/10 01:52:31;;;;;;;26.43;19.83;;;14.70;99.90;;;;;;4999559;28;20454;-67
2021/07/10 01:54:58;;;;;;;26.60;21.57;;;14.70;99.90;;;;;;4999587;28;20470;-66
2021/07/10 01:57:26;;;;;;;29.97;22.00;;;14.60;99.90;;;;;;4987693;28;20459;-67
2021/07/10 01:59:52;;;;;;;22.50;19.97;;;14.60;99.90;;;;;;4980149;28;20458;-67
2021/07/10 02:02:19;;;;;;;25.13;19.63;;;14.60;99.90;;;;;;4979956;28;20453;-67
2021/07/10 02:04:47;;;;;;;23.43;20.27;;;14.60;99.90;;;;;;4980063;28;20471;-67
2021/07/10 02:07:14;;;;;;;25.10;19.40;;;14.50;99.90;;;;;;4989917;28;20509;-66
2021/07/10 02:09:41;;;;;;;30.13;21.47;;;14.50;99.90;;;;;;4999685;28;20446;-67
2021/07/10 02:12:09;;;;;;;29.57;22.20;;;14.50;99.90;;;;;;4999507;28;20454;-67
2021/07/10 02:14:37;;;;;;;32.20;25.90;;;14.50;99.90;;;;;;4999341;28;20457;-66
2021/07/10 02:17:05;;;;;;;37.97;27.83;;;14.50;99.90;;;;;;4991026;28;20443;-66
2021/07/10 02:19:32;;;;;;;40.80;29.60;;;14.50;99.90;;;;;;4979904;28;20457;-66
2021/07/10 02:21:59;;;;;;;43.17;29.97;;;14.50;99.90;;;;;;4979830;28;20490;-66
2021/07/10 02:24:26;;;;;;;50.43;30.00;;;14.60;99.90;;;;;;4979661;28;20447;-66
2021/07/10 02:26:53;;;;;;;46.23;30.37;;;14.60;99.90;;;;;;4986467;28;20949;-66
2021/07/10 02:29:19;;;;;;;42.27;27.57;;;14.60;99.90;;;;;;4999628;28;20507;-67
2021/07/10 02:31:47;;;;;;;39.47;27.47;;;14.70;99.90;;;;;;5002892;28;20446;-66
2021/07/10 02:34:14;;;;;;;44.87;28.23;;;14.70;99.90;;;;;;5002752;28;20885;-66
2021/07/10 02:36:41;;;;;;;34.30;25.83;;;14.70;99.90;;;;;;4997988;28;20920;-66
2021/07/10 02:39:07;;;;;;;37.50;26.23;;;14.60;99.90;;;;;;4983366;28;20453;-66
2021/07/10 02:41:34;;;;;;;37.63;27.30;;;14.60;99.90;;;;;;4983084;28;20450;-67
2021/07/10 02:44:01;;;;;;;36.67;27.70;;;14.50;99.90;;;;;;4982995;28;20462;-67
2021/07/10 02:46:27;;;;;;;34.37;27.17;;;14.60;99.90;;;;;;4985637;28;20490;-67
2021/07/10 02:48:58;;;;;;;40.90;25.93;;;14.50;99.90;;;;;;5002604;28;20445;-66
2021/07/10 02:51:25;;;;;;;39.00;27.60;;;14.50;99.90;;;;;;5002497;28;20593;-66
2021/07/10 02:53:53;;;;;;;38.53;27.20;;;14.50;99.90;;;;;;5002569;28;20442;-66
2021/07/10 02:56:20;;;;;;;44.73;29.30;;;14.50;99.90;;;;;;5000696;28;20470;-66
2021/07/10 02:58:47;;;;;;;43.97;26.80;;;14.50;99.90;;;;;;4983053;28;20454;-67
2021/07/10 03:01:14;;;;;;;31.97;24.13;;;14.50;99.90;;;;;;4982823;28;20562;-67
2021/07/10 03:03:41;;;;;;;36.60;27.50;;;14.50;99.90;;;;;;4982658;28;21019;-67
2021/07/10 03:06:09;;;;;;;34.87;26.63;;;14.50;99.90;;;;;;4982764;28;20502;-66
2021/07/10 03:08:36;;;;;;;39.13;27.70;;;14.50;99.90;;;;;;5002331;28;20458;-67
2021/07/10 03:11:05;;;;;;;45.50;28.63;;;14.50;99.90;;;;;;5002004;28;20450;-67
2021/07/10 03:13:31;;;;;;;53.53;28.30;;;14.50;99.90;;;;;;5002153;28;20449;-67
2021/07/10 03:15:58;;;;;;;41.57;27.97;;;14.40;99.90;;;;;;5001844;28;20462;-66
2021/07/10 03:18:25;;;;;;;42.00;27.70;;;14.40;99.90;;;;;;4984048;28;20865;-66
2021/07/10 03:20:52;;;;;;;47.00;33.00;;;14.40;99.90;;;;;;4982630;28;20928;-67
2021/07/10 03:23:20;;;;;;;43.17;28.83;;;14.40;99.90;;;;;;4982448;28;20465;-67
2021/07/10 03:25:47;;;;;;;40.27;27.33;;;14.30;99.90;;;;;;4982234;28;20525;-67
2021/07/10 03:28:14;;;;;;;32.17;24.00;;;14.40;99.90;;;;;;4998086;28;20928;-66
2021/07/10 03:30:41;;;;;;;33.87;25.37;;;14.30;99.90;;;;;;5001770;28;20446;-67
2021/07/10 03:33:08;;;;;;;43.07;28.70;;;14.30;99.90;;;;;;5001614;28;20823;-67
2021/07/10 03:35:34;;;;;;;41.70;29.33;;;14.30;99.90;;;;;;5001730;28;20466;-67
2021/07/10 03:38:02;;;;;;;49.60;30.70;;;14.30;99.90;;;;;;4987698;28;21048;-67
2021/07/10 03:40:30;;;;;;;40.83;26.77;;;14.30;99.90;;;;;;4982026;28;20451;-67
2021/07/10 03:42:57;;;;;;;33.93;26.77;;;14.40;99.90;;;;;;4981912;28;20482;-66
2021/07/10 03:45:24;;;;;;;41.50;28.47;;;14.40;99.90;;;;;;4981963;28;20915;-67
2021/07/10 03:47:50;;;;;;;38.47;27.17;;;14.40;99.90;;;;;;4994217;28;20489;-67
2021/07/10 03:50:18;;;;;;;37.27;25.67;;;14.40;99.90;;;;;;5001130;28;20823;-66
2021/07/10 03:52:45;;;;;;;42.60;26.77;;;14.50;99.90;;;;;;5001265;28;20450;-67
2021/07/10 03:55:13;;;;;;;50.37;28.63;;;14.50;99.90;;;;;;5001229;28;20465;-66
2021/07/10 03:57:42;;;;;;;42.33;27.20;;;14.50;99.90;;;;;;4990669;28;20450;-67
2021/07/10 04:00:12;;;;;;;37.13;27.20;;;14.50;99.90;;;;;;4982142;28;20488;-66
2021/07/10 04:02:39;;;;;;;50.33;31.63;;;14.50;99.90;;;;;;4981695;28;20450;-67
2021/07/10 04:05:07;;;;;;;44.67;31.23;;;14.50;99.90;;;;;;4981616;28;20474;-67
2021/07/10 04:07:34;;;;;;;42.67;30.03;;;14.70;99.90;;;;;;4991156;28;20991;-65
2021/07/10 04:10:01;;;;;;;52.67;29.40;;;14.70;99.90;;;;;;5001325;28;20454;-65
2021/07/10 04:12:28;;;;;;;48.60;31.13;;;14.70;99.90;;;;;;5001080;28;20473;-64
2021/07/10 04:15:00;;;;;;;47.13;30.73;;;14.80;99.90;;;;;;5000481;28;20474;-65
2021/07/10 04:17:27;;;;;;;42.30;30.30;;;14.90;99.90;;;;;;4996214;28;20777;-65
2021/07/10 04:19:54;;;;;;;52.40;34.07;;;14.90;99.90;;;;;;5001053;28;20450;-65
2021/07/10 04:22:20;;;;;;;43.83;30.07;;;15.00;99.90;;;;;;5000708;28;21007;-65
2021/07/10 04:24:47;;;;;;;43.90;30.70;;;15.10;99.90;;;;;;5000661;28;20918;-66
2021/07/10 04:27:14;;;;;;;41.87;31.60;;;15.20;99.90;;;;;;4987216;28;20490;-65
2021/07/10 04:29:41;;;;;;;50.23;30.23;;;15.30;99.90;;;;;;4981380;28;20813;-65
2021/07/10 04:32:09;;;;;;;47.03;31.00;;;15.40;99.90;;;;;;4980891;28;20978;-65
2021/07/10 04:34:36;;;;;;;53.27;36.83;;;15.50;99.90;;;;;;4980931;28;20446;-65
2021/07/10 04:37:03;;;;;;;46.80;33.70;;;15.60;99.90;;;;;;4992988;28;20457;-65
2021/07/10 04:39:29;;;;;;;45.80;31.90;;;15.70;99.90;;;;;;5000774;28;20450;-65
2021/07/10 04:41:56;;;;;;;51.33;34.70;;;15.90;99.90;;;;;;5000329;28;20453;-65
2021/07/10 04:44:24;;;;;;;49.77;37.40;;;16.00;99.90;;;;;;5000375;28;20453;-65
2021/07/10 04:46:50;;;;;;;50.30;35.70;;;16.20;99.90;;;;;;4990440;28;20487;-65
2021/07/10 04:49:19;;;;;;;47.33;34.53;;;16.30;99.90;;;;;;4980972;28;21044;-65
2021/07/10 04:51:46;;;;;;;41.77;33.57;;;16.50;99.90;;;;;;4980249;28;20447;-65
2021/07/10 04:54:12;;;;;;;44.17;32.57;;;16.60;99.90;;;;;;4980501;28;20447;-65
2021/07/10 04:56:39;;;;;;;48.57;37.33;;;16.70;99.90;;;;;;4988627;28;20473;-65
2021/07/10 04:59:06;;;;;;;37.57;33.13;;;16.80;99.90;;;;;;5000453;28;20453;-64
2021/07/10 05:01:33;;;;;;;37.43;33.03;;;16.90;99.90;;;;;;5000006;28;20508;-65
2021/07/10 05:04:00;;;;;;;45.07;31.10;;;16.90;99.90;;;;;;5000284;28;20959;-65
2021/07/10 05:06:28;;;;;;;40.40;32.13;;;17.00;99.90;;;;;;4994659;28;20513;-65
2021/07/10 05:08:55;;;;;;;41.13;32.87;;;17.10;99.90;;;;;;4980823;28;20813;-65
2021/07/10 05:11:21;;;;;;;38.70;34.57;;;17.30;99.90;;;;;;4980388;28;20497;-65
2021/07/10 05:13:48;;;;;;;35.97;32.03;;;17.30;99.90;;;;;;4982167;28;20474;-65
2021/07/10 05:16:15;;;;;;;31.63;28.13;;;17.40;99.90;;;;;;4999602;28;20500;-65
2021/07/10 05:18:41;;;;;;;33.40;29.90;;;17.50;99.90;;;;;;4999754;28;20926;-68
2021/07/10 05:21:08;;;;;;;33.23;29.73;;;17.60;99.90;;;;;;4990605;28;20788;-68
2021/07/10 05:23:36;;;;;;;31.67;28.20;;;17.70;99.90;;;;;;4980374;28;20458;-68
2021/07/10 05:26:03;;;;;;;33.10;29.67;;;17.90;99.90;;;;;;4980354;28;20482;-69
2021/07/10 05:28:30;;;;;;;30.53;27.60;;;18.00;99.90;;;;;;4996405;28;20891;-69
2021/07/10 05:30:56;;;;;;;27.90;25.20;;;18.20;99.90;;;;;;4980630;28;20922;-69
2021/07/10 05:33:23;;;;;;;29.80;26.80;;;18.40;99.90;;;;;;4989211;28;20461;-69
2021/07/10 05:35:50;;;;;;;29.93;26.93;;;18.50;99.90;;;;;;4999943;28;20476;-70
2021/07/10 05:38:17;;;;;;;28.33;25.57;;;18.60;99.90;;;;;;5000145;28;20449;-70
2021/07/10 05:40:46;;;;;;;27.20;25.00;;;18.60;99.90;;;;;;5000042;28;20438;-70
2021/07/10 05:43:13;;;;;;;29.60;26.67;;;18.70;99.90;;;;;;4999996;28;20825;-69
2021/07/10 05:45:40;;;;;;;26.60;24.30;;;18.80;99.90;;;;;;4999414;28;21073;-69
2021/07/10 05:48:07;;;;;;;25.63;23.30;;;18.80;99.90;;;;;;4999932;28;20477;-69
2021/07/10 05:50:34;;;;;;;28.67;26.37;;;19.00;99.90;;;;;;5000022;28;21022;-69
2021/07/10 05:53:01;;;;;;;24.07;22.10;;;19.10;99.90;;;;;;4999578;28;20458;-68
2021/07/10 05:55:28;;;;;;;31.50;26.07;;;19.30;99.90;;;;;;4999685;28;20474;-70
2021/07/10 05:57:56;;;;;;;26.67;24.37;;;19.40;99.90;;;;;;4999817;28;20782;-70
2021/07/10 06:00:23;;;;;;;27.33;25.23;;;19.60;99.90;;;;;;4999334;28;21057;-70
2021/07/10 06:02:49;;;;;;;28.57;26.27;;;19.60;99.90;;;;;;4999882;28;20532;-70
2021/07/10 06:05:16;;;;;;;27.27;25.10;;;19.70;99.90;;;;;;5001820;28;20477;-71
2021/07/10 06:07:43;;;;;;;27.87;25.57;;;19.70;99.90;;;;;;4985602;28;20927;-70
2021/07/10 06:10:11;;;;;;;30.23;27.40;;;19.80;99.90;;;;;;4983916;28;20458;-69
2021/07/10 06:12:39;;;;;;;27.03;24.93;;;19.90;99.90;;;;;;4983669;28;20462;-68
2021/07/10 06:15:09;;;;;;;27.00;25.10;;;20.00;99.90;;;;;;4983924;28;20467;-69
2021/07/10 06:17:36;;;;;;;26.13;24.33;;;20.20;99.90;;;;;;5002649;28;20458;-69
2021/07/10 06:20:04;;;;;;;27.90;25.70;;;20.40;99.90;;;;;;5003306;28;20473;-69
2021/07/10 06:22:30;;;;;;;28.50;26.30;;;20.60;99.90;;;;;;5003485;28;20453;-69
2021/07/10 06:24:57;;;;;;;27.87;25.57;;;20.80;99.90;;;;;;5003958;28;20480;-69
2021/07/10 06:27:24;;;;;;;27.97;25.87;;;21.00;99.90;;;;;;4986556;28;20821;-69
2021/07/10 06:29:50;;;;;;;28.87;26.57;;;21.20;99.90;;;;;;4983918;28;20889;-69
2021/07/10 06:32:19;;;;;;;27.30;25.43;;;21.30;99.90;;;;;;4983344;28;20451;-69
2021/07/10 06:34:46;;;;;;;27.30;25.20;;;21.40;99.90;;;;;;4983387;28;21136;-69
2021/07/10 06:37:13;;;;;;;27.37;25.47;;;21.50;99.90;;;;;;4983665;28;20461;-70
2021/07/10 06:39:39;;;;;;;26.67;24.57;;;21.60;99.90;;;;;;4983450;28;20454;-69
2021/07/10 06:42:07;;;;;;;27.07;25.27;;;21.70;99.90;;;;;;4983150;28;20458;-69
2021/07/10 06:44:33;;;;;;;27.40;25.70;;;21.80;99.90;;;;;;5001299;28;20449;-69
2021/07/10 06:47:00;;;;;;;25.30;23.60;;;22.00;99.90;;;;;;5002698;28;21001;-70
2021/07/10 06:49:28;;;;;;;28.37;26.50;;;22.00;99.90;;;;;;5002702;28;20450;-69
2021/07/10 06:51:55;;;;;;;26.60;24.70;;;22.00;99.90;;;;;;5002777;28;20446;-69
2021/07/10 06:54:21;;;;;;;28.83;26.73;;;21.90;99.90;;;;;;5000357;28;20461;-70
2021/07/10 06:56:48;;;;;;;28.43;26.43;;;21.90;99.90;;;;;;4988346;28;20570;-69
2021/07/10 06:59:15;;;;;;;28.67;26.43;;;21.90;99.90;;;;;;4992352;28;20922;-69
2021/07/10 07:01:42;;;;;;;26.83;24.93;;;21.90;99.90;;;;;;5002242;28;20454;-69
2021/07/10 07:04:09;;;;;;;27.07;25.23;;;21.80;99.90;;;;;;5002440;28;20458;-68
2021/07/10 07:06:38;;;;;;;26.60;24.73;;;21.70;99.90;;;;;;4983563;28;20485;-69
2021/07/10 07:09:05;;;;;;;25.10;23.40;;;21.70;99.90;;;;;;4983014;28;20561;-69
2021/07/10 07:11:31;;;;;;;26.37;24.57;;;21.70;99.90;;;;;;4982721;28;20462;-69
2021/07/10 07:13:58;;;;;;;29.87;27.67;;;21.70;99.90;;;;;;4982976;28;20908;-69
2021/07/10 07:16:25;;;;;;;28.87;26.97;;;21.60;99.90;;;;;;4999697;28;20500;-69
2021/07/10 07:18:51;;;;;;;28.63;26.60;;;21.50;99.90;;;;;;5002358;28;20477;-69
2021/07/10 07:21:18;;;;;;;24.70;23.17;;;21.60;99.90;;;;;;5002100;28;20445;-69
2021/07/10 07:23:46;;;;;;;28.53;26.33;;;21.50;99.90;;;;;;5002326;28;20452;-68
2021/07/10 07:26:13;;;;;;;26.47;24.57;;;21.60;99.90;;;;;;4987140;28;20486;-69
2021/07/10 07:28:40;;;;;;;27.70;25.90;;;21.80;99.90;;;;;;4984953;28;20493;-70
2021/07/10 07:31:07;;;;;;;27.47;25.67;;;21.90;99.90;;;;;;4983226;28;20454;-70
2021/07/10 07:33:33;;;;;;;26.40;24.60;;;22.00;99.90;;;;;;4983943;28;20473;-71
2021/07/10 07:36:00;;;;;;;26.60;24.70;;;22.30;99.90;;;;;;4984154;28;21105;-68
2021/07/10 07:38:27;;;;;;;25.53;23.80;;;22.60;99.90;;;;;;4984257;28;20442;-69
2021/07/10 07:40:55;;;;;;;27.33;25.43;;;22.70;99.90;;;;;;5001732;28;20450;-69
2021/07/10 07:43:22;;;;;;;28.00;26.10;;;22.90;99.90;;;;;;5002688;28;20446;-69
2021/07/10 07:45:49;;;;;;;28.43;26.20;;;23.10;99.90;;;;;;5002460;28;20921;-68
2021/07/10 07:48:15;;;;;;;26.63;25.03;;;23.20;99.90;;;;;;5002369;28;20496;-68
2021/07/10 07:50:42;;;;;;;25.60;24.00;;;23.40;99.90;;;;;;5002247;28;20454;-69
2021/07/10 07:53:09;;;;;;;27.07;25.20;;;23.50;99.90;;;;;;4988025;28;20454;-70
2021/07/10 07:55:36;;;;;;;23.33;21.67;;;23.60;99.90;;;;;;4981902;28;20479;-70
2021/07/10 07:58:05;;;;;;;23.90;22.40;;;23.80;99.90;;;;;;4981919;28;20902;-69
2021/07/10 08:00:32;;;;;;;24.57;22.80;;;24.10;99.90;;;;;;4981906;28;20937;-70
2021/07/10 08:02:59;;;;;;;25.47;23.77;;;24.30;99.90;;;;;;4981471;28;21086;-69
2021/07/10 08:05:25;;;;;;;25.03;23.53;;;24.40;99.90;;;;;;5001361;28;20470;-71
2021/07/10 08:07:53;;;;;;;24.43;22.90;;;24.30;99.90;;;;;;5000945;28;20919;-69
2021/07/10 08:10:20;;;;;;;25.20;23.50;;;24.50;99.90;;;;;;5001212;28;20704;-70
2021/07/10 08:12:50;;;;;;;25.23;23.40;;;24.60;99.90;;;;;;5001060;28;20454;-70
2021/07/10 08:15:19;;;;;;;26.27;24.37;;;24.70;99.90;;;;;;4992848;28;20516;-69
2021/07/10 08:17:48;;;;;;;27.90;25.83;;;25.00;99.90;;;;;;5001329;28;20446;-68
2021/07/10 08:20:16;;;;;;;25.97;24.43;;;25.10;99.90;;;;;;5001054;28;20452;-69
2021/07/10 08:22:43;;;;;;;26.47;24.90;;;25.30;99.90;;;;;;5000262;28;20783;-69
2021/07/10 08:25:11;;;;;;;26.37;24.70;;;25.60;99.90;;;;;;4983775;28;20962;-70
2021/07/10 08:27:38;;;;;;;25.70;24.20;;;25.70;99.90;;;;;;4980582;28;20491;-69
2021/07/10 08:30:08;;;;;;;24.73;23.43;;;25.80;99.90;;;;;;4981282;28;20446;-69
2021/07/10 08:32:37;;;;;;;24.67;23.27;;;26.00;99.90;;;;;;4981106;28;20479;-69
2021/07/10 08:35:05;;;;;;;24.93;23.43;;;26.10;98.20;;;;;;4993136;28;20505;-70
2021/07/10 08:37:31;;;;;;;24.17;22.73;;;26.10;96.00;;;;;;5000578;28;20456;-69
2021/07/10 08:39:58;;;;;;;23.87;22.50;;;26.20;96.60;;;;;;5000707;28;20450;-69
2021/07/10 08:42:25;;;;;;;26.33;24.93;;;26.40;96.00;;;;;;5000658;28;20450;-69
2021/07/10 08:44:54;;;;;;;25.37;23.97;;;26.50;95.30;;;;;;4990140;28;20475;-70
2021/07/10 08:47:21;;;;;;;25.30;24.00;;;26.50;94.80;;;;;;4980988;28;20497;-69
2021/07/10 08:49:49;;;;;;;26.20;24.70;;;26.60;93.70;;;;;;4980967;28;21342;-70
2021/07/10 08:52:16;;;;;;;28.80;26.37;;;26.70;93.30;;;;;;4980594;28;20491;-71
2021/07/10 08:54:43;;;;;;;24.97;23.50;;;26.90;92.30;;;;;;4980889;28;20473;-69
2021/07/10 08:57:13;;;;;;;26.37;24.77;;;27.10;91.40;;;;;;4994885;28;20816;-69
2021/07/10 08:59:40;;;;;;;24.00;22.77;;;27.40;90.10;;;;;;5000771;28;20564;-69
2021/07/10 09:02:07;;;;;;;24.80;23.30;;;27.40;89.60;;;;;;5000625;28;20449;-69
2021/07/10 09:04:34;;;;;;;25.27;23.97;;;27.40;88.10;;;;;;5000169;28;20492;-69
2021/07/10 09:07:02;;;;;;;27.40;25.93;;;27.60;85.80;;;;;;5000467;28;20449;-70
2021/07/10 09:09:42;;;;;;;25.70;24.10;;;27.90;83.60;;;;;;4988160;28;20492;-70
2021/07/10 09:12:10;;;;;;;23.97;22.87;;;28.20;82.70;;;;;;4980434;28;20558;-70
2021/07/10 09:14:37;;;;;;;24.57;23.27;;;28.10;81.90;;;;;;4980404;28;20450;-69
2021/07/10 09:17:15;;;;;;;24.63;23.13;;;28.20;78.40;;;;;;4984137;28;20451;-69
2021/07/10 09:19:42;;;;;;;23.90;22.50;;;28.40;77.00;;;;;;4980674;28;20455;-69
2021/07/10 09:22:10;;;;;;;24.67;22.90;;;28.50;75.80;;;;;;4993384;28;20461;-70
2021/07/10 09:24:40;;;;;;;26.27;24.60;;;28.80;73.60;;;;;;4999891;28;20466;-69
2021/07/10 09:27:09;;;;;;;26.23;24.73;;;28.90;72.40;;;;;;4999901;28;20797;-69
2021/07/10 09:29:39;;;;;;;25.13;23.63;;;28.70;69.80;;;;;;4999870;28;20832;-69
2021/07/10 09:32:08;;;;;;;25.23;23.93;;;28.50;69.50;;;;;;4999736;28;20528;-69
2021/07/10 09:34:38;;;;;;;24.87;23.47;;;28.30;71.20;;;;;;4982433;28;20462;-69
2021/07/10 09:37:08;;;;;;;25.80;24.40;;;28.60;70.10;;;;;;4980269;28;20580;-69
2021/07/10 09:39:40;;;;;;;23.57;21.93;;;28.60;69.40;;;;;;4984927;28;21003;-69
2021/07/10 09:42:07;;;;;;;26.50;25.10;;;28.50;69.40;;;;;;4986475;28;20454;-69
2021/07/10 09:44:46;;;;;;;26.67;24.80;;;28.60;69.30;;;;;;4990145;28;20904;-69
2021/07/10 09:47:14;;;;;;;24.60;23.10;;;29.10;69.40;;;;;;5004754;28;20458;-69
2021/07/10 09:49:43;;;;;;;27.30;25.70;;;29.00;68.40;;;;;;5004927;28;20484;-69
2021/07/10 09:52:12;;;;;;;23.60;22.37;;;29.20;66.70;;;;;;5005948;28;20452;-69
2021/07/10 09:54:44;;;;;;;23.93;22.63;;;29.30;65.20;;;;;;5005985;28;20465;-69
2021/07/10 09:57:17;;;;;;;24.03;22.80;;;29.30;65.20;;;;;;5006137;28;20912;-69
2021/07/10 09:59:47;;;;;;;23.57;22.27;;;29.60;64.20;;;;;;4995795;28;20455;-70
2021/07/10 10:02:20;;;;;;;25.20;23.80;;;29.80;62.80;;;;;;4986456;28;20457;-70
2021/07/10 10:04:47;;;;;;;27.37;25.77;;;30.00;61.70;;;;;;4986473;28;20498;-70
2021/07/10 10:07:16;;;;;;;27.23;25.73;;;30.20;59.80;;;;;;4986636;28;20446;-70
2021/07/10 10:09:46;;;;;;;25.50;24.10;;;29.70;59.40;;;;;;4986562;28;20488;-70
2021/07/10 10:12:14;;;;;;;24.10;23.00;;;29.80;60.00;;;;;;5000326;28;20974;-70
2021/07/10 10:14:46;;;;;;;23.70;22.30;;;29.60;58.80;;;;;;5005362;28;20480;-70
2021/07/10 10:17:15;;;;;;;21.73;20.63;;;29.80;59.70;;;;;;5005440;28;20465;-70
2021/07/10 10:19:42;;;;;;;22.67;21.27;;;29.90;59.20;;;;;;5006230;28;20773;-70
2021/07/10 10:22:11;;;;;;;23.70;22.57;;;29.90;58.50;;;;;;5006193;28;20555;-70
2021/07/10 10:24:39;;;;;;;26.13;23.83;;;29.70;58.40;;;;;;4986530;28;20875;-70
2021/07/10 10:27:08;;;;;;;23.63;22.03;;;29.90;58.30;;;;;;4986519;28;20481;-71
2021/07/10 10:29:36;;;;;;;24.40;22.90;;;29.70;58.10;;;;;;4986346;28;20501;-70
2021/07/10 10:32:06;;;;;;;26.03;24.43;;;29.60;58.40;;;;;;4986334;28;20524;-70
2021/07/10 10:34:34;;;;;;;31.93;27.70;;;29.50;58.20;;;;;;4989823;28;21061;-70
2021/07/10 10:37:00;;;;;;;27.43;25.60;;;29.60;58.20;;;;;;4995227;28;20455;-69
2021/07/10 10:39:31;;;;;;;29.37;27.17;;;29.50;57.70;;;;;;4986244;28;20450;-69
2021/07/10 10:42:01;;;;;;;24.07;22.67;;;29.40;59.30;;;;;;4986049;28;20817;-69
2021/07/10 10:44:40;;;;;;;29.67;27.70;;;29.40;58.80;;;;;;4986224;28;20911;-69
2021/07/10 10:47:09;;;;;;;24.63;22.80;;;29.80;59.80;;;;;;4996916;28;20457;-69
2021/07/10 10:49:47;;;;;;;30.43;28.53;;;30.20;58.20;;;;;;5005141;28;20531;-70
2021/07/10 10:52:34;;;;;;;56.53;51.97;;;30.70;57.30;;;;;;4998993;28;20497;-69
2021/07/10 10:55:09;;;;;;;47.77;44.07;;;31.00;56.30;;;;;;5002894;28;20477;-69
2021/07/10 10:57:39;;;;;;;41.80;38.83;;;31.20;56.00;;;;;;5002413;28;20452;-69
2021/07/10 11:00:12;;;;;;;28.40;26.90;;;31.10;56.10;;;;;;5002651;28;20445;-69
2021/07/10 11:03:07;;;;;;;26.07;24.67;;;30.90;54.70;;;;;;4985176;28;20446;-69
2021/07/10 11:05:55;;;;;;;26.30;25.00;;;31.20;55.40;;;;;;4983072;28;20470;-69
2021/07/10 11:08:44;;;;;;;24.50;23.30;;;31.40;54.80;;;;;;4984124;28;20493;-70
2021/07/10 11:11:19;;;;;;;24.67;23.53;;;31.50;53.70;;;;;;4982792;28;20897;-68
2021/07/10 11:14:02;;;;;;;24.67;23.40;;;31.20;53.60;;;;;;4983175;28;20454;-68
2021/07/10 11:16:30;;;;;;;25.20;23.83;;;31.50;53.90;;;;;;4982952;28;20475;-70
2021/07/10 11:18:59;;;;;;;25.77;24.37;;;31.20;54.50;;;;;;4985738;28;20441;-70
2021/07/10 11:21:48;;;;;;;23.70;22.50;;;31.20;53.60;;;;;;5002000;28;21049;-70
2021/07/10 11:24:23;;;;;;;23.07;21.87;;;30.80;54.10;;;;;;5002069;28;20460;-69
2021/07/10 11:27:25;;;;;;;24.60;23.40;;;30.60;55.20;;;;;;5002115;28;20472;-67
2021/07/10 11:30:20;;;;;;;24.00;22.80;;;30.50;55.10;;;;;;5001813;28;21032;-68
2021/07/10 11:32:48;;;;;;;25.30;24.00;;;30.30;54.90;;;;;;4984094;28;20485;-69
2021/07/10 11:35:39;;;;;;;24.27;22.83;;;30.40;54.00;;;;;;4982240;28;20482;-69
2021/07/10 11:38:06;;;;;;;26.23;24.50;;;30.70;53.80;;;;;;4982024;28;20458;-68
2021/07/10 11:40:40;;;;;;;24.77;23.57;;;30.80;53.40;;;;;;4982891;28;21070;-68
2021/07/10 11:43:09;;;;;;;23.87;22.87;;;31.20;53.10;;;;;;4984462;28;20971;-67
2021/07/10 11:45:37;;;;;;;25.77;24.27;;;31.30;52.60;;;;;;4981678;28;20470;-69
2021/07/10 11:48:25;;;;;;;25.60;24.47;;;31.30;53.00;;;;;;4982070;28;20999;-66
2021/07/10 11:51:00;;;;;;;24.00;22.90;;;31.70;52.40;;;;;;4986868;28;20853;-69
2021/07/10 11:53:27;;;;;;;23.37;22.27;;;33.10;51.30;;;;;;4981779;28;20466;-70
2021/07/10 11:55:57;;;;;;;22.67;21.73;;;33.30;48.90;;;;;;4981774;28;20474;-68
2021/07/10 11:58:24;;;;;;;22.23;21.23;;;33.40;49.00;;;;;;4981845;28;20956;-70
2021/07/10 12:00:51;;;;;;;23.00;21.90;;;33.60;47.80;;;;;;4988513;28;20468;-69
2021/07/10 12:03:19;;;;;;;23.60;22.43;;;33.50;46.20;;;;;;4999515;28;20452;-67
2021/07/10 12:05:49;;;;;;;22.63;21.63;;;33.10;44.80;;;;;;4999727;28;20989;-69
2021/07/10 12:08:18;;;;;;;23.57;22.53;;;31.90;45.60;;;;;;5001210;28;20465;-67
2021/07/10 12:10:47;;;;;;;23.20;22.20;;;31.00;47.30;;;;;;5001128;28;20453;-68
2021/07/10 12:13:15;;;;;;;24.47;23.20;;;30.70;49.70;;;;;;5000873;28;20449;-67
2021/07/10 12:15:44;;;;;;;22.70;21.70;;;30.00;50.60;;;;;;4987994;28;20497;-66
2021/07/10 12:18:13;;;;;;;24.10;22.97;;;29.40;51.50;;;;;;4981614;28;20455;-67
2021/07/10 12:20:42;;;;;;;25.27;24.07;;;29.00;52.40;;;;;;4981578;28;21035;-66
2021/07/10 12:23:15;;;;;;;24.20;22.90;;;28.50;52.90;;;;;;4981329;28;20455;-67
2021/07/10 12:25:48;;;;;;;23.17;22.07;;;28.30;53.80;;;;;;4982142;28;20482;-67
2021/07/10 12:28:15;;;;;;;23.83;22.67;;;28.00;56.00;;;;;;4999176;28;20462;-67
2021/07/10 12:30:46;;;;;;;23.80;22.60;;;27.70;56.50;;;;;;5001073;28;20457;-67
2021/07/10 12:33:36;;;;;;;22.97;21.63;;;27.60;56.90;;;;;;5000917;28;20889;-68
2021/07/10 12:36:06;;;;;;;23.00;21.90;;;27.30;57.30;;;;;;5000607;28;20493;-67